Time;durP1;ratioP1;P1;durP2;ratioP2;P2;SDS_P1;SDS_P2;PMS_P1;PMS_P2;Temp;Humidity;BMP_temperature;BMP_pressure;BME280_temperature;BME280_humidity;BME280_pressure;Samples;Min_cycle;Max_cycle;Signal;HPM_P1;HPM_P2
2021/10/14 05:08:09;;;;;;;41.90;35.42;;;;;;;6.34;100.00;95291.25;5336095;23;20127;-80
2021/10/14 05:20:56;;;;;;;37.95;33.97;;;;;;;6.15;100.00;95286.13;5411996;23;20051;-80
2021/10/14 05:23:22;;;;;;;34.42;30.92;;;;;;;6.44;100.00;95329.00;4952927;29;20079;-79
2021/10/14 05:25:48;;;;;;;40.60;34.35;;;;;;;6.22;100.00;95282.06;4942258;29;20118;-78
2021/10/14 05:28:13;;;;;;;38.38;34.25;;;;;;;7.00;100.00;95408.88;4955914;29;20059;-80
2021/10/14 05:30:39;;;;;;;39.38;34.50;;;;;;;7.00;100.00;95411.47;4927154;29;20505;-79
2021/10/14 05:33:04;;;;;;;40.15;35.78;;;;;;;6.54;100.00;95347.81;4933707;29;20011;-79
2021/10/14 05:35:30;;;;;;;40.35;34.70;;;;;;;6.52;100.00;95342.03;5039291;23;20473;-79
2021/10/14 05:37:55;;;;;;;33.50;29.83;;;;;;;6.09;100.00;95270.41;4939061;29;20069;-79
2021/10/14 05:40:21;;;;;;;33.67;30.05;;;;;;;6.87;100.00;95394.50;4930682;29;20036;-80
2021/10/14 05:42:47;;;;;;;40.10;31.95;;;;;;;6.16;100.00;95271.50;4922349;29;20047;-78
2021/10/14 05:45:13;;;;;;;44.75;36.22;;;;;;;6.48;100.00;95336.34;4933711;29;20028;-77
2021/10/14 05:47:39;;;;;;;33.40;29.27;;;;;;;6.98;100.00;95406.44;4938446;29;20044;-79
2021/10/14 05:50:05;;;;;;;35.58;28.88;;;;;;;6.95;100.00;95398.16;4921879;29;20056;-79
2021/10/14 05:52:31;;;;;;;37.83;32.17;;;;;;;6.87;100.00;95386.78;4899849;29;20116;-77
2021/10/14 05:54:59;;;;;;;31.63;28.00;;;;;;;6.92;100.00;95404.41;4950447;29;20031;-77
2021/10/14 05:57:24;;;;;;;36.70;31.70;;;;;;;6.72;100.00;95385.59;4929571;29;20441;-77
2021/10/14 05:59:50;;;;;;;29.60;25.60;;;;;;;6.85;100.00;95399.00;4891911;29;20040;-77
2021/10/14 06:02:16;;;;;;;27.70;24.08;;;;;;;6.66;100.00;95386.16;4921521;29;20032;-77
2021/10/14 06:04:41;;;;;;;30.67;25.88;;;;;;;6.70;100.00;95397.81;4913521;29;20529;-77
2021/10/14 06:07:07;;;;;;;29.33;26.17;;;;;;;6.77;100.00;95400.66;4891675;29;20072;-78
2021/10/14 06:09:34;;;;;;;29.27;26.13;;;;;;;6.87;100.00;95425.41;4936053;29;20024;-79
2021/10/14 06:11:59;;;;;;;23.88;21.40;;;;;;;6.74;100.00;95413.78;4938806;29;20019;-78
2021/10/14 06:14:25;;;;;;;21.52;19.42;;;;;;;6.62;100.00;95396.84;4943157;29;20546;-77
2021/10/14 06:16:50;;;;;;;15.10;13.60;;;;;;;6.56;100.00;95349.31;4898279;29;20501;-78
2021/10/14 06:19:15;;;;;;;15.52;14.10;;;;;;;6.61;100.00;95344.59;4896784;29;20036;-77
2021/10/14 06:21:41;;;;;;;16.88;15.27;;;;;;;6.60;100.00;95332.66;4921609;29;20032;-79
2021/10/14 06:24:07;;;;;;;17.10;15.48;;;;;;;6.65;100.00;95340.75;4914220;29;20035;-80
2021/10/14 06:26:32;;;;;;;16.58;14.95;;;;;;;6.81;100.00;95373.66;4914333;29;20059;-79
2021/10/14 06:28:58;;;;;;;15.73;14.25;;;;;;;6.50;100.00;95342.13;4901849;29;20032;-78
2021/10/14 06:31:23;;;;;;;19.35;17.45;;;;;;;6.69;100.00;95362.72;4904418;29;20043;-77
2021/10/14 06:33:49;;;;;;;21.33;18.90;;;;;;;6.60;100.00;95383.31;4888721;29;20032;-76
2021/10/14 06:36:14;;;;;;;18.63;16.73;;;;;;;6.57;100.00;95374.09;4907050;29;20629;-78
2021/10/14 06:38:40;;;;;;;17.65;15.90;;;;;;;6.64;100.00;95384.66;4906632;29;20497;-77
2021/10/14 06:41:05;;;;;;;17.58;15.88;;;;;;;6.63;100.00;95373.56;4906348;29;20035;-78
2021/10/14 06:43:31;;;;;;;13.23;12.13;;;;;;;6.69;100.00;95390.19;4879232;29;20564;-78
2021/10/14 06:45:56;;;;;;;12.68;11.57;;;;;;;6.52;100.00;95358.25;4903015;29;20475;-77
2021/10/14 06:48:21;;;;;;;11.82;10.82;;;;;;;6.71;100.00;95381.38;4886079;29;20047;-78
2021/10/14 06:50:47;;;;;;;11.95;10.98;;;;;;;6.63;100.00;95370.97;4912819;29;20040;-78
2021/10/14 06:53:13;;;;;;;8.30;7.70;;;;;;;6.68;100.00;95384.25;4895839;29;20024;-78
2021/10/14 06:55:40;;;;;;;6.40;5.88;;;;;;;6.54;100.00;95345.25;4911325;29;20096;-78
2021/10/14 06:58:05;;;;;;;6.97;6.38;;;;;;;6.71;100.00;95368.53;4927298;29;20024;-78
2021/10/14 07:00:31;;;;;;;4.88;4.55;;;;;;;6.57;100.00;95371.53;4931378;29;20049;-77
2021/10/14 07:02:57;;;;;;;3.95;3.65;;;;;;;6.04;100.00;95318.84;4929083;29;20469;-78
2021/10/14 07:05:22;;;;;;;3.92;3.65;;;;;;;6.26;100.00;95345.09;4885219;29;20096;-78
2021/10/14 07:07:48;;;;;;;3.50;3.30;;;;;;;6.41;100.00;95347.28;4897769;29;20028;-77
2021/10/14 07:10:15;;;;;;;2.75;2.55;;;;;;;6.32;100.00;95333.50;4915018;29;20042;-77
2021/10/14 07:12:41;;;;;;;2.20;2.10;;;;;;;6.60;100.00;95371.25;4915082;29;20031;-77
2021/10/14 07:15:07;;;;;;;2.50;2.30;;;;;;;6.29;100.00;95354.34;4932628;29;20114;-77
2021/10/14 07:17:33;;;;;;;2.17;1.98;;;;;;;6.41;100.00;95363.53;4914676;29;20571;-78
2021/10/14 07:19:58;;;;;;;2.83;2.63;;;;;;;6.48;100.00;95372.34;4931449;29;20031;-77
2021/10/14 07:22:24;;;;;;;3.25;2.95;;;;;;;6.43;100.00;95363.38;4914669;29;20031;-78
2021/10/14 07:24:50;;;;;;;2.33;2.13;;;;;;;6.19;100.00;95345.81;4923217;29;20087;-78
2021/10/14 07:27:15;;;;;;;2.53;2.33;;;;;;;6.12;100.00;95324.94;4920625;29;20036;-78
2021/10/14 07:29:41;;;;;;;2.80;2.60;;;;;;;5.82;100.00;95314.72;4902723;29;20539;-78
2021/10/14 07:32:06;;;;;;;1.90;1.80;;;;;;;6.13;100.00;95334.28;4895261;29;20115;-77
2021/10/14 07:34:35;;;;;;;2.10;2.00;;;;;;;5.96;100.00;95344.41;4902330;29;20025;-78
2021/10/14 07:37:01;;;;;;;1.63;1.53;;;;;;;6.09;100.00;95330.38;4899600;29;20044;-78
2021/10/14 07:39:27;;;;;;;5.25;1.70;;;;;;;6.31;100.00;95340.38;4899368;29;20055;-78
2021/10/14 07:41:52;;;;;;;3.60;1.95;;;;;;;6.38;100.00;95342.41;4894967;29;20031;-78
2021/10/14 07:44:18;;;;;;;2.30;2.20;;;;;;;6.24;100.00;95356.47;4912983;29;20043;-79
2021/10/14 07:46:44;;;;;;;2.58;2.08;;;;;;;5.78;100.00;95333.91;4947289;29;20115;-79
2021/10/14 07:49:10;;;;;;;2.85;2.55;;;;;;;6.19;100.00;95349.19;4897303;29;20138;-78
2021/10/14 07:51:36;;;;;;;2.00;1.90;;;;;;;6.12;100.00;95372.97;4881657;29;20020;-79
2021/10/14 07:54:02;;;;;;;2.40;2.20;;;;;;;5.83;100.00;95353.16;4900175;29;20028;-79
2021/10/14 07:56:28;;;;;;;2.60;2.40;;;;;;;6.27;100.00;95395.59;4891919;29;20521;-78
2021/10/14 07:58:53;;;;;;;2.67;2.47;;;;;;;6.27;100.00;95379.34;4916336;29;20036;-79
2021/10/14 08:01:19;;;;;;;2.55;2.35;;;;;;;6.37;100.00;95403.31;4904548;29;20024;-80
2021/10/14 08:03:45;;;;;;;3.67;3.38;;;;;;;6.12;100.00;95385.84;4900911;29;20025;-77
2021/10/14 08:06:10;;;;;;;2.80;2.60;;;;;;;6.16;100.00;95382.06;4913329;29;20024;-78
2021/10/14 08:08:36;;;;;;;1.70;1.60;;;;;;;5.73;100.00;95370.31;4900137;29;20025;-77
2021/10/14 08:11:03;;;;;;;1.98;1.88;;;;;;;5.92;100.00;95368.75;4902133;29;20518;-80
2021/10/14 08:13:28;;;;;;;2.67;1.25;;;;;;;6.12;100.00;95358.38;4914889;29;20039;-78
2021/10/14 08:15:54;;;;;;;2.13;1.88;;;;;;;6.13;100.00;95375.41;4896040;29;20478;-78
2021/10/14 08:18:20;;;;;;;1.75;1.65;;;;;;;6.14;100.00;95365.94;4904575;29;20462;-78
2021/10/14 08:20:46;;;;;;;1.52;1.42;;;;;;;6.00;100.00;95369.72;4893848;29;20061;-77
2021/10/14 08:23:12;;;;;;;4.68;3.30;;;;;;;6.22;100.00;95371.25;4902249;29;20035;-78
2021/10/14 08:25:38;;;;;;;3.40;3.10;;;;;;;6.24;100.00;95366.75;4928822;29;20035;-78
2021/10/14 08:28:03;;;;;;;1.40;1.30;;;;;;;5.73;100.00;95328.38;4907811;29;20482;-78
2021/10/14 08:30:29;;;;;;;1.40;1.30;;;;;;;5.95;100.00;95356.44;4889235;29;20032;-78
2021/10/14 08:32:54;;;;;;;1.40;1.30;;;;;;;6.07;100.00;95364.88;4885401;29;20035;-78
2021/10/14 08:35:20;;;;;;;1.30;1.20;;;;;;;6.08;100.00;95327.91;4926862;29;20067;-80
2021/10/14 08:37:48;;;;;;;1.10;0.90;;;;;;;6.08;100.00;95363.91;4894614;29;20033;-79
2021/10/14 08:40:15;;;;;;;2.67;1.02;;;;;;;6.30;100.00;95376.50;4940751;29;20051;-81
2021/10/14 08:42:40;;;;;;;1.30;1.00;;;;;;;5.31;100.00;95274.59;4938156;29;20020;-80
2021/10/14 08:45:07;;;;;;;0.88;0.88;;;;;;;5.29;100.00;95235.44;5466132;23;20039;-82
2021/10/14 08:47:33;;;;;;;1.70;1.60;;;;;;;5.55;100.00;95360.78;4939211;29;20063;-80
2021/10/14 08:49:59;;;;;;;0.90;0.90;;;;;;;5.40;100.00;95292.72;4943735;29;20023;-81
2021/10/14 08:52:25;;;;;;;1.35;0.88;;;;;;;5.95;100.00;95376.19;4942130;29;20032;-79
2021/10/14 08:54:51;;;;;;;1.15;1.05;;;;;;;4.68;100.00;95224.41;4955236;29;20012;-82
2021/10/14 08:57:16;;;;;;;1.05;0.95;;;;;;;5.77;100.00;95379.38;4956540;29;20092;-80
2021/10/14 08:59:42;;;;;;;1.00;0.95;;;;;;;4.67;100.00;95237.34;4925452;29;20012;-81
2021/10/14 09:02:08;;;;;;;0.80;0.77;;;;;;;5.57;100.00;95371.72;5173362;23;20043;-81
2021/10/14 09:04:38;;;;;;;1.40;1.20;;;;;;;5.76;100.00;95394.91;4952729;28;20485;-78
2021/10/14 09:07:12;;;;;;;1.88;1.70;;;;;;;5.30;100.00;95288.38;4958708;28;20038;-80
2021/10/14 09:09:38;;;;;;;0.98;0.98;;;;;;;4.94;100.00;95298.38;4953126;28;20043;-78
2021/10/14 09:12:07;;;;;;;1.50;1.10;;;;;;;4.73;100.00;95299.22;4952596;29;20032;-80
2021/10/14 09:14:32;;;;;;;2.60;1.88;;;;;;;5.44;100.00;95382.22;5663216;23;20042;-79
2021/10/14 09:16:58;;;;;;;1.73;1.60;;;;;;;4.82;100.00;95287.38;4916157;29;20048;-79
2021/10/14 09:19:24;;;;;;;2.50;2.30;;;;;;;4.94;100.00;95267.59;4916000;29;20486;-78
2021/10/14 09:21:50;;;;;;;4.22;3.83;;;;;;;5.80;100.00;95389.41;4906647;29;20545;-77
2021/10/14 09:24:36;;;;;;;4.97;3.75;;;;;;;5.79;100.00;95374.09;4904478;29;20032;-79
2021/10/14 09:27:12;;;;;;;1.40;1.30;;;;;;;5.72;100.00;95362.72;4924148;29;20083;-80
2021/10/14 09:29:38;;;;;;;0.88;0.88;;;;;;;5.83;100.00;95362.63;4959847;28;20521;-80
2021/10/14 09:43:03;;;;;;;4.03;3.72;;;;;;;4.33;100.00;95220.56;4954500;23;20053;-81
2021/10/14 09:48:18;;;;;;;6.93;6.32;;;;;;;4.91;100.00;95294.31;5863079;23;20042;-78
2021/10/14 09:50:46;;;;;;;12.07;10.88;;;;;;;5.38;100.00;95328.81;5301775;23;20054;-80
2021/10/14 09:53:16;;;;;;;11.25;10.15;;;;;;;4.85;100.00;95246.06;4957028;29;20046;-81
2021/10/14 09:55:41;;;;;;;8.93;8.07;;;;;;;5.05;100.00;95247.75;4962363;28;20014;-81
2021/10/14 09:58:07;;;;;;;7.18;6.55;;;;;;;4.66;100.00;95208.31;4940947;29;20103;-80
2021/10/14 10:00:33;;;;;;;6.50;5.93;;;;;;;5.26;100.00;95279.34;4936931;29;20035;-80
2021/10/14 10:02:59;;;;;;;5.78;4.97;;;;;;;5.53;100.00;95298.44;4984021;28;20026;-79
2021/10/14 10:05:25;;;;;;;4.47;4.07;;;;;;;4.65;100.00;95199.03;4919547;29;20379;-79
2021/10/14 10:07:51;;;;;;;5.32;4.82;;;;;;;5.10;100.00;95268.75;4941184;29;20204;-78
2021/10/14 10:10:19;;;;;;;8.82;8.02;;;;;;;5.40;100.00;95311.50;4956065;28;20019;-76
2021/10/14 10:12:45;;;;;;;8.05;7.25;;;;;;;5.35;100.00;95272.59;4960745;28;20028;-80
2021/10/14 10:15:10;;;;;;;5.22;4.60;;;;;;;5.02;100.00;95254.91;4927983;28;20030;-79
2021/10/14 10:17:36;;;;;;;6.88;5.78;;;;;;;5.66;100.00;95334.97;4946333;28;20031;-78
2021/10/14 10:20:02;;;;;;;6.47;5.88;;;;;;;5.67;100.00;95329.72;4986829;28;20042;-78
2021/10/14 10:22:34;;;;;;;8.73;7.82;;;;;;;5.51;100.00;95328.59;4973924;28;20041;-79
2021/10/14 10:25:24;;;;;;;7.03;5.60;;;;;;;5.71;100.00;95327.72;4967192;28;20526;-80
2021/10/14 10:27:53;;;;;;;5.78;5.28;;;;;;;5.66;100.00;95317.81;4988969;28;20052;-80
2021/10/14 10:30:37;;;;;;;5.70;4.75;;;;;;;5.80;100.00;95327.72;4954065;28;20039;-79
2021/10/14 10:33:04;;;;;;;11.10;8.48;;;;;;;5.97;100.00;95307.50;4966268;28;20042;-79
2021/10/14 10:35:43;;;;;;;5.53;5.03;;;;;;;5.22;100.00;95211.22;5033745;23;20058;-78
2021/10/14 10:38:28;;;;;;;3.60;3.30;;;;;;;5.69;100.00;95302.13;4975149;28;20035;-78
2021/10/14 10:40:56;;;;;;;5.30;4.90;;;;;;;4.94;100.00;95211.13;4974725;28;20526;-80
2021/10/14 10:43:29;;;;;;;4.32;3.92;;;;;;;5.76;100.00;95304.97;4991416;28;20032;-79
2021/10/14 10:45:56;;;;;;;9.82;8.93;;;;;;;5.71;100.00;95289.97;4969844;28;20037;-78
2021/10/14 10:48:36;;;;;;;6.90;6.28;;;;;;;5.81;100.00;95280.50;4991531;28;20042;-79
2021/10/14 10:51:02;;;;;;;3.97;3.67;;;;;;;5.70;100.00;95274.69;4991918;28;20019;-79
2021/10/14 10:53:48;;;;;;;7.05;6.45;;;;;;;5.61;100.00;95278.06;4963748;28;20035;-80
2021/10/14 10:56:37;;;;;;;5.68;5.18;;;;;;;5.33;100.00;95241.91;4994679;28;20030;-78
2021/10/14 10:59:03;;;;;;;3.90;3.60;;;;;;;5.35;100.00;95225.56;4985556;28;20205;-77
2021/10/14 11:01:29;;;;;;;3.28;2.97;;;;;;;5.64;100.00;95239.25;4989700;28;20050;-80
2021/10/14 11:04:01;;;;;;;4.28;3.88;;;;;;;5.59;100.00;95229.38;4977170;28;20022;-80
2021/10/14 11:06:29;;;;;;;6.25;5.72;;;;;;;5.62;100.00;95216.25;4970732;28;20042;-80
2021/10/14 11:09:05;;;;;;;5.18;4.78;;;;;;;5.76;100.00;95207.34;4980819;28;20026;-80
2021/10/14 11:11:31;;;;;;;2.92;2.72;;;;;;;5.61;100.00;95224.94;5001830;28;20010;-82
2021/10/14 11:13:57;;;;;;;2.60;2.40;;;;;;;5.59;100.00;95226.81;4985726;28;20159;-77
2021/10/14 11:16:26;;;;;;;3.35;2.95;;;;;;;5.64;100.00;95222.09;4978115;28;20046;-79
2021/10/14 11:18:56;;;;;;;5.18;3.80;;;;;;;5.69;100.00;95217.34;4987572;28;20049;-81
2021/10/14 11:21:22;;;;;;;2.17;1.88;;;;;;;5.63;100.00;95215.31;4983284;28;20014;-81
2021/10/14 11:23:49;;;;;;;1.90;1.80;;;;;;;5.72;100.00;95216.25;4994941;28;20026;-81
2021/10/14 11:26:27;;;;;;;1.75;1.65;;;;;;;5.68;100.00;95215.72;5104626;23;20042;-79
2021/10/14 11:28:59;;;;;;;1.73;1.63;;;;;;;5.69;100.00;95208.81;4995280;28;20030;-80
2021/10/14 11:31:33;;;;;;;1.65;1.55;;;;;;;4.98;100.00;95081.63;5006798;28;20033;-80
2021/10/14 11:34:06;;;;;;;1.67;1.58;;;;;;;5.48;100.00;95183.28;5002200;28;20025;-80
2021/10/14 11:36:31;;;;;;;2.40;2.20;;;;;;;4.95;100.00;95098.09;5034127;28;20022;-80
2021/10/14 11:39:04;;;;;;;2.42;1.60;;;;;;;4.91;100.00;95083.94;5009977;28;20034;-79
2021/10/14 11:41:31;;;;;;;1.92;1.73;;;;;;;4.98;100.00;95091.88;4988404;28;20042;-80
2021/10/14 11:44:00;;;;;;;1.90;1.70;;;;;;;5.59;100.00;95206.25;5268438;23;20419;-79
2021/10/14 11:46:27;;;;;;;2.08;1.98;;;;;;;4.87;100.00;95061.22;4960154;28;20035;-80
2021/10/14 11:49:00;;;;;;;1.77;1.67;;;;;;;4.78;100.00;95050.03;4975562;28;20034;-79
2021/10/14 11:51:26;;;;;;;1.80;1.70;;;;;;;5.17;100.00;95123.50;4978109;28;20019;-81
2021/10/14 11:53:57;;;;;;;1.60;1.50;;;;;;;5.37;100.00;95180.00;5057922;23;20729;-78
2021/10/14 11:56:23;;;;;;;1.50;1.40;;;;;;;5.31;100.00;95191.63;5212001;23;20052;-80
2021/10/14 11:58:48;;;;;;;2.03;1.90;;;;;;;5.45;100.00;95193.81;4933055;29;20026;-80
2021/10/14 12:01:14;;;;;;;1.75;1.55;;;;;;;4.72;100.00;95097.50;5626670;23;20042;-78
2021/10/14 12:03:40;;;;;;;1.90;1.65;;;;;;;4.53;100.00;95071.00;4929649;29;20107;-79
2021/10/14 12:06:06;;;;;;;2.22;1.55;;;;;;;4.84;100.00;95108.47;4937518;29;20046;-79
2021/10/14 12:08:32;;;;;;;4.65;3.00;;;;;;;5.58;100.00;95221.81;4967655;23;20045;-81
2021/10/14 12:10:58;;;;;;;2.03;1.80;;;;;;;5.16;100.00;95183.50;5592942;23;20091;-76
2021/10/14 12:13:31;;;;;;;1.77;1.67;;;;;;;5.25;100.00;95205.00;4961345;28;20120;-80
2021/10/14 12:16:13;;;;;;;2.17;1.77;;;;;;;5.42;100.00;95208.69;4968795;28;20041;-80
2021/10/14 12:18:38;;;;;;;2.50;2.30;;;;;;;5.26;100.00;95207.44;4999584;28;20046;-81
2021/10/14 12:21:33;;;;;;;2.80;2.22;;;;;;;5.37;100.00;95191.09;4978748;28;20026;-82
2021/10/14 12:26:43;;;;;;;1.70;1.35;;;;;;;5.18;100.00;95203.91;4101167;26;20063;-79
2021/10/14 12:29:28;;;;;;;2.70;2.45;;;;;;;4.90;100.00;95174.66;5021435;28;20018;-80
2021/10/14 12:32:09;;;;;;;3.25;2.75;;;;;;;5.28;100.00;95195.28;5006533;28;20021;-79
2021/10/14 12:34:54;;;;;;;3.08;2.75;;;;;;;4.93;100.00;95176.16;4986679;28;20039;-78
2021/10/14 12:37:28;;;;;;;2.15;1.70;;;;;;;5.04;100.00;95187.09;4963901;28;20041;-79
2021/10/14 12:40:12;;;;;;;2.22;2.00;;;;;;;5.22;100.00;95205.25;4962879;28;20031;-80
2021/10/14 12:45:29;;;;;;;4.03;3.63;;;;;;;4.96;100.00;95189.53;4982951;28;20419;-79
2021/10/14 12:48:11;;;;;;;3.00;1.98;;;;;;;5.01;100.00;95196.84;4973478;28;20517;-78
2021/10/14 12:51:18;;;;;;;2.67;1.80;;;;;;;4.99;100.00;95175.63;4963494;28;20034;-79
2021/10/14 12:54:02;;;;;;;2.97;2.60;;;;;;;5.08;100.00;95185.09;4968427;28;20065;-79
2021/10/14 12:56:38;;;;;;;3.05;2.80;;;;;;;4.93;100.00;95178.72;4938293;28;20117;-77
2021/10/14 12:59:07;;;;;;;5.45;4.95;;;;;;;5.19;100.00;95183.25;4954353;28;20030;-79
2021/10/14 13:01:38;;;;;;;2.50;2.30;;;;;;;4.92;100.00;95172.75;4977931;28;20034;-79
2021/10/14 13:04:04;;;;;;;1.98;1.88;;;;;;;5.03;100.00;95169.28;4973857;28;20018;-79
2021/10/14 13:06:29;;;;;;;1.80;1.60;;;;;;;5.09;100.00;95189.28;4963564;28;20058;-78
2021/10/14 13:09:03;;;;;;;3.03;2.83;;;;;;;5.15;100.00;95192.16;4944516;28;20013;-79
2021/10/14 13:11:31;;;;;;;5.20;4.70;;;;;;;4.71;100.00;95177.16;4974917;28;20226;-78
2021/10/14 13:13:57;;;;;;;4.28;3.88;;;;;;;4.65;100.00;95178.50;4975381;28;20039;-78
2021/10/14 13:16:22;;;;;;;6.72;6.13;;;;;;;4.67;100.00;95188.63;4953527;28;20030;-78
2021/10/14 13:18:48;;;;;;;10.60;9.60;;;;;;;4.69;100.00;95182.41;4950578;28;20046;-77
2021/10/14 13:21:13;;;;;;;6.22;5.63;;;;;;;4.57;100.00;95169.81;4944918;28;20041;-78
2021/10/14 13:23:39;;;;;;;8.80;7.38;;;;;;;4.31;100.00;95160.91;4955604;28;20049;-78
2021/10/14 13:26:04;;;;;;;4.10;3.75;;;;;;;4.05;100.00;95170.75;4955055;28;20058;-78
2021/10/14 13:28:34;;;;;;;3.80;3.50;;;;;;;4.13;100.00;95163.28;4954088;28;20052;-78
2021/10/14 13:31:01;;;;;;;3.40;3.10;;;;;;;4.17;100.00;95160.31;4961912;28;20412;-77
2021/10/14 13:33:29;;;;;;;3.10;2.75;;;;;;;4.47;100.00;95172.34;4959686;28;20050;-79
2021/10/14 13:35:56;;;;;;;3.70;3.40;;;;;;;4.59;100.00;95162.81;4934442;28;20031;-78
2021/10/14 13:38:21;;;;;;;4.40;4.03;;;;;;;4.50;100.00;95177.19;4969395;28;20120;-79
2021/10/14 13:41:07;;;;;;;8.70;7.85;;;;;;;4.18;100.00;95154.25;4984548;28;20030;-78
2021/10/14 13:43:39;;;;;;;7.57;6.95;;;;;;;4.24;100.00;95143.50;4968130;28;20488;-78
2021/10/14 13:46:05;;;;;;;4.40;3.92;;;;;;;4.47;100.00;95149.25;4957996;28;20117;-79
2021/10/14 13:48:31;;;;;;;4.40;4.10;;;;;;;4.65;100.00;95160.56;4964621;28;20058;-79
2021/10/14 13:50:58;;;;;;;3.08;2.88;;;;;;;4.46;100.00;95168.16;4950375;28;20085;-79
2021/10/14 13:53:24;;;;;;;2.63;2.42;;;;;;;4.64;100.00;95171.75;4985127;28;20034;-77
2021/10/14 13:55:49;;;;;;;5.90;5.40;;;;;;;4.42;100.00;95156.53;4960669;28;20401;-78
2021/10/14 13:58:14;;;;;;;7.13;6.53;;;;;;;4.45;100.00;95152.91;4974463;28;20045;-77
2021/10/14 14:00:44;;;;;;;3.55;3.25;;;;;;;4.57;100.00;95165.50;4957068;28;20059;-79
2021/10/14 14:03:09;;;;;;;5.28;4.90;;;;;;;4.52;100.00;95165.09;4942765;29;20532;-80
2021/10/14 14:05:36;;;;;;;4.95;4.55;;;;;;;4.43;100.00;95178.66;4938737;29;20042;-78
2021/10/14 14:08:02;;;;;;;8.95;7.65;;;;;;;4.53;100.00;95174.38;4942149;29;20382;-78
2021/10/14 14:10:27;;;;;;;6.38;5.88;;;;;;;4.23;100.00;95141.88;4940938;28;20041;-79
2021/10/14 14:12:52;;;;;;;8.85;7.95;;;;;;;4.38;100.00;95167.16;4953621;28;20041;-80
2021/10/14 14:15:18;;;;;;;10.55;9.48;;;;;;;4.55;100.00;95177.66;4948463;29;20027;-78
2021/10/14 14:17:43;;;;;;;8.73;7.88;;;;;;;4.45;100.00;95171.66;4942603;29;20046;-79
2021/10/14 14:20:10;;;;;;;9.05;7.60;;;;;;;4.48;100.00;95173.16;4950445;28;20038;-79
2021/10/14 14:22:36;;;;;;;9.93;8.93;;;;;;;4.31;100.00;95182.25;4958249;28;20045;-78
2021/10/14 14:25:01;;;;;;;8.95;8.05;;;;;;;4.50;100.00;95184.09;4945571;28;20557;-79
2021/10/14 14:27:27;;;;;;;11.35;10.35;;;;;;;4.37;100.00;95156.09;4962336;28;20027;-78
2021/10/14 14:29:55;;;;;;;8.75;8.05;;;;;;;4.30;100.00;95175.50;4961720;28;20031;-79
2021/10/14 14:32:20;;;;;;;7.07;6.47;;;;;;;4.34;100.00;95181.16;4986835;28;20073;-79
2021/10/14 14:34:46;;;;;;;8.65;7.65;;;;;;;4.43;100.00;95181.22;4969636;28;20421;-80
2021/10/14 14:37:11;;;;;;;8.07;7.28;;;;;;;4.30;100.00;95185.75;4968324;28;20424;-79
2021/10/14 14:39:38;;;;;;;9.55;8.63;;;;;;;4.40;100.00;95176.34;4984985;28;20027;-78
2021/10/14 14:42:04;;;;;;;7.00;6.38;;;;;;;4.40;100.00;95194.28;4995420;28;20480;-80
2021/10/14 14:44:29;;;;;;;6.55;5.95;;;;;;;4.57;100.00;95192.88;4968871;28;20027;-80
2021/10/14 14:46:56;;;;;;;6.18;5.68;;;;;;;4.43;100.00;95193.25;4963973;28;20106;-79
2021/10/14 14:49:23;;;;;;;6.15;5.55;;;;;;;4.46;100.00;95193.81;4996120;28;20032;-79
2021/10/14 14:51:48;;;;;;;8.88;7.60;;;;;;;4.51;100.00;95198.53;4984837;28;20074;-80
2021/10/14 14:54:14;;;;;;;8.73;7.93;;;;;;;4.33;100.00;95182.13;5010179;28;20030;-80
2021/10/14 14:56:39;;;;;;;6.43;5.82;;;;;;;4.42;100.00;95189.88;4988750;28;20035;-81
2021/10/14 14:59:05;;;;;;;7.05;6.45;;;;;;;4.43;100.00;95193.25;4979178;28;20030;-80
2021/10/14 15:01:30;;;;;;;8.32;7.53;;;;;;;4.42;100.00;95202.69;4987418;28;20018;-80
2021/10/14 15:03:56;;;;;;;6.63;5.88;;;;;;;4.38;100.00;95205.63;4972736;28;20046;-79
2021/10/14 15:06:21;;;;;;;8.45;7.55;;;;;;;4.08;100.00;95173.88;4959169;28;20608;-79
2021/10/14 15:08:49;;;;;;;7.78;7.07;;;;;;;4.34;100.00;95196.53;4969427;28;20026;-79
2021/10/14 15:11:14;;;;;;;6.38;5.78;;;;;;;4.41;100.00;95205.34;4970458;28;20066;-79
2021/10/14 15:13:41;;;;;;;6.60;6.05;;;;;;;4.27;100.00;95173.16;4949823;28;20046;-79
2021/10/14 15:16:07;;;;;;;7.88;7.18;;;;;;;4.44;100.00;95210.22;4974859;28;20023;-79
2021/10/14 15:18:33;;;;;;;16.15;13.43;;;;;;;4.25;100.00;95195.56;4956330;28;20037;-77
2021/10/14 15:20:58;;;;;;;9.25;8.45;;;;;;;4.12;100.00;95211.13;4972715;28;20425;-80
2021/10/14 15:23:25;;;;;;;11.55;10.52;;;;;;;4.36;100.00;95210.88;4951980;28;20034;-78
2021/10/14 15:25:50;;;;;;;9.60;8.50;;;;;;;4.33;100.00;95212.88;4964306;28;20035;-79
2021/10/14 15:28:16;;;;;;;7.47;6.88;;;;;;;4.39;100.00;95217.50;4972669;28;20037;-79
2021/10/14 15:30:41;;;;;;;8.77;7.93;;;;;;;4.43;100.00;95219.66;4977388;28;20023;-79
2021/10/14 15:33:07;;;;;;;8.80;7.95;;;;;;;4.40;100.00;95214.78;4970735;28;20030;-79
2021/10/14 15:35:35;;;;;;;8.18;7.47;;;;;;;4.42;100.00;95217.25;4981011;28;20094;-78
2021/10/14 15:38:05;;;;;;;7.50;6.90;;;;;;;4.43;100.00;95227.34;4947270;29;20075;-79
2021/10/14 15:40:31;;;;;;;;;;;;;;;4.47;100.00;95222.78;4946025;29;20030;-80
2021/10/14 15:42:56;;;;;;;9.38;8.57;;;;;;;4.39;100.00;95218.31;4972641;28;19918;-78
2021/10/14 15:45:22;;;;;;;9.60;8.70;;;;;;;4.42;100.00;95230.06;4976580;28;20031;-78
2021/10/14 15:47:47;;;;;;;10.05;8.98;;;;;;;4.43;100.00;95231.69;4937705;29;20058;-78
2021/10/14 15:50:13;;;;;;;14.15;11.85;;;;;;;4.25;100.00;95218.63;4948167;28;20036;-79
2021/10/14 15:52:38;;;;;;;14.68;13.15;;;;;;;4.26;100.00;95210.00;4973538;28;20026;-80
2021/10/14 15:55:04;;;;;;;12.25;10.90;;;;;;;4.39;100.00;95228.56;4972517;28;20034;-80
2021/10/14 15:57:29;;;;;;;10.80;9.80;;;;;;;4.39;100.00;95241.41;4977190;28;20039;-79
2021/10/14 15:59:55;;;;;;;11.77;10.77;;;;;;;4.39;100.00;95246.53;4972055;28;20007;-79
2021/10/14 16:02:21;;;;;;;13.82;12.43;;;;;;;4.24;100.00;95240.88;4942428;29;20028;-80
2021/10/14 16:04:46;;;;;;;11.02;9.93;;;;;;;4.40;100.00;95237.09;4942530;29;20027;-80
2021/10/14 16:07:12;;;;;;;13.80;12.40;;;;;;;4.27;100.00;95229.56;4941195;29;20008;-78
2021/10/14 16:09:37;;;;;;;10.73;9.70;;;;;;;4.26;100.00;95227.94;4962263;29;20035;-77
2021/10/14 16:12:03;;;;;;;9.15;8.32;;;;;;;4.23;100.00;95234.16;4991279;28;20069;-79
2021/10/14 16:14:29;;;;;;;9.68;8.77;;;;;;;4.31;100.00;95305.28;5001792;28;20016;-81
2021/10/14 16:16:55;;;;;;;9.15;8.32;;;;;;;4.20;100.00;95318.97;4975007;28;20031;-80
2021/10/14 16:19:21;;;;;;;8.32;6.70;;;;;;;4.23;100.00;95321.28;4976111;28;20019;-79
2021/10/14 16:21:46;;;;;;;8.45;7.30;;;;;;;4.32;100.00;95327.41;4978463;28;20034;-78
2021/10/14 16:24:16;;;;;;;9.50;8.63;;;;;;;4.09;100.00;95300.25;4978088;28;20030;-80
2021/10/14 16:26:42;;;;;;;7.90;7.10;;;;;;;4.27;100.00;95323.59;4971479;28;20046;-78
2021/10/14 16:29:07;;;;;;;11.77;10.60;;;;;;;4.26;100.00;95317.66;4971373;28;20170;-78
2021/10/14 16:31:33;;;;;;;9.88;8.90;;;;;;;4.33;100.00;95336.75;4945087;29;20027;-79
2021/10/14 16:36:33;;;;;;;8.98;8.07;;;;;;;4.37;100.00;95324.47;4927457;29;20104;-78
2021/10/14 16:38:59;;;;;;;8.57;7.78;;;;;;;4.25;100.00;95314.28;4933875;29;20035;-78
2021/10/14 16:41:25;;;;;;;9.93;8.88;;;;;;;4.33;100.00;95328.22;4952469;28;20550;-79
2021/10/14 16:43:51;;;;;;;7.13;6.43;;;;;;;4.29;100.00;95321.72;4958554;28;20050;-77
2021/10/14 16:46:16;;;;;;;7.82;7.05;;;;;;;4.31;100.00;95325.78;4955852;28;20033;-78
2021/10/14 16:48:42;;;;;;;7.47;6.85;;;;;;;4.28;100.00;95325.22;4966144;28;20030;-78
2021/10/14 16:51:07;;;;;;;8.02;7.22;;;;;;;4.33;100.00;95331.63;4983149;28;20030;-78
2021/10/14 16:53:32;;;;;;;7.53;6.82;;;;;;;4.34;100.00;95333.22;4986037;28;20022;-78
2021/10/14 16:55:58;;;;;;;8.07;7.35;;;;;;;4.36;100.00;95340.81;4950530;28;20452;-78
2021/10/14 16:58:26;;;;;;;9.07;8.18;;;;;;;4.22;100.00;95331.66;4973572;28;20034;-78
2021/10/14 17:00:51;;;;;;;8.30;7.43;;;;;;;4.36;100.00;95353.63;4978843;28;20031;-79
2021/10/14 17:03:17;;;;;;;6.80;6.20;;;;;;;4.25;100.00;95339.91;4962564;28;20098;-78
2021/10/14 17:05:42;;;;;;;7.90;7.10;;;;;;;4.30;100.00;95341.31;4976130;28;20034;-79
2021/10/14 17:08:13;;;;;;;8.65;7.80;;;;;;;4.01;100.00;95303.44;4955296;28;20039;-78
2021/10/14 17:10:41;;;;;;;11.30;10.07;;;;;;;4.25;100.00;95351.91;4970659;28;20058;-79